Latest Coastal Weather Observations for Friendly Beaches

IDT60701

Issued at 1:15 pm EDT Sunday 23 November 2014 (issued every 10 minutes, with the page automatically refreshed every 10 minutes)

About coastal observations | Map of coastal stations | Coastal observations for TAS | Marine services | Other Formats
Station Details ID: 092114 Name: FRIENDLY BEACHES Lat: -42.00 Lon: 148.28 Height: 55.0 m
Data from the previous 72 hours. | See also: Recent months at Friendly Beaches
Date/Time
EDT
Temp

°C
Wind Pressure Rain
since 9am
mm
Weather Cloud Vis
km
Sea
Height
m
Swell
Dir
 
Speed
knots
Gust
knots
hPa Trend Height
m
Period
s
Dir
23/01:00pm 20.7 NE 10 14 1009.4 - 0.0 - - - - - - -
23/12:30pm 20.1 E 7 9 1009.1 - 0.0 - - - - - - -
23/12:00pm 19.9 E 8 11 1009.1 - 0.0 - - - - - - -
23/11:30am 20.1 E 7 11 1009.1 - 0.0 - - - - - - -
23/11:00am 20.1 ESE 9 12 1008.8 - 0.0 - - - - - - -
23/10:30am 20.1 ESE 9 14 1008.5 - 0.0 - - - - - - -
23/10:00am 19.6 ESE 11 16 1008.1 - 0.0 - - - - - - -
23/09:30am 21.2 S 9 13 1007.8 - 0.0 - - - - - - -
23/09:00am 20.3 SW 8 12 1007.6 - 0.0 - - - - - - -
23/08:30am 19.8 SW 9 15 1007.1 - 0.0 - - - - - - -
23/08:00am 19.3 SSW 5 8 1006.9 - 0.0 - - - - - - -
23/07:30am 18.1 WSW 5 8 1006.2 - 0.0 - - - - - - -
23/07:00am 17.1 WSW 5 8 1005.7 - 0.0 - - - - - - -
23/06:30am 15.9 WSW 6 10 1005.0 - 0.0 - - - - - - -
23/06:00am 15.1 WSW 5 7 1004.5 - 0.0 - - - - - - -
23/05:30am 14.6 WSW 6 9 1004.3 - 0.0 - - - - - - -
23/05:00am 13.8 W 5 7 1003.8 - 0.0 - - - - - - -
23/04:30am 13.8 W 5 6 1003.5 - 0.0 - - - - - - -
23/04:00am 13.7 W 5 7 1003.3 - 0.0 - - - - - - -
23/03:30am 16.0 W 4 7 1003.0 - 0.0 - - - - - - -
23/03:00am 15.9 WNW 2 3 1002.6 - 0.0 - - - - - - -
23/02:30am 14.5 N 3 4 1002.5 - 0.0 - - - - - - -
23/02:00am 16.8 NNW 4 6 1003.1 - 0.0 - - - - - - -
23/01:30am 16.8 N 7 10 1002.7 - 0.0 - - - - - - -
23/01:00am 15.0 W 4 9 1003.7 - 0.0 - - - - - - -
23/12:30am 14.5 S 3 4 1004.0 - 0.0 - - - - - - -
23/12:00am 15.8 NE 4 6 1003.9 - 0.0 - - - - - - -
 
Date/Time
EDT
Temp

°C
Wind Pressure Rain
since 9am
mm
Weather Cloud Vis
km
Sea
Height
m
Swell
Dir
 
Speed
knots
Gust
knots
hPa Trend Height
m
Period
s
Dir
22/11:30pm 16.0 N 5 7 1004.4 - 0.0 - - - - - - -
22/11:00pm 17.3 N 12 19 1004.4 - 0.0 - - - - - - -
22/10:30pm 17.0 N 10 17 1004.4 - 0.0 - - - - - - -
22/10:00pm 16.3 N 8 13 1004.6 - 0.0 - - - - - - -
22/09:30pm 16.0 N 10 14 1004.9 - 0.0 - - - - - - -
22/09:00pm 16.5 NNE 11 15 1004.9 - 0.0 - - - - - - -
22/08:30pm 16.9 N 12 19 1004.7 - 0.0 - - - - - - -
22/08:00pm 17.1 NNE 9 12 1004.8 - 0.0 - - - - - - -
22/07:30pm 18.1 N 10 16 1004.6 - 0.0 - - - - - - -
22/07:00pm 19.4 N 10 16 1004.5 - 0.0 - - - - - - -
22/06:30pm 20.5 N 8 13 1004.4 - 0.0 - - - - - - -
22/06:00pm 21.8 N 9 14 1004.2 - 0.0 - - - - - - -
22/05:30pm 21.2 N 10 16 1004.4 - 0.0 - - - - - - -
22/05:00pm 21.7 N 11 17 1004.7 - 0.0 - - - - - - -
22/04:30pm 23.9 N 13 21 1004.5 - 0.0 - - - - - - -
22/04:00pm 23.8 N 12 20 1004.8 - 0.0 - - - - - - -
22/03:30pm 20.7 NNE 15 23 1004.9 - 0.0 - - - - - - -
22/03:00pm 21.8 N 14 22 1005.4 - 0.0 - - - - - - -
22/02:38pm 20.9 N 16 27 1005.8 - 0.0 - - - - - - -
22/02:30pm 22.3 N 15 23 1005.9 - 0.0 - - - - - - -
22/02:00pm 22.8 NNE 15 22 1006.0 - 0.0 - - - - - - -
22/01:30pm 21.9 NNE 14 21 1006.5 - 0.0 - - - - - - -
22/01:00pm 22.2 NNE 13 18 1007.1 - 0.0 - - - - - - -
22/12:30pm 20.6 NE 10 16 1007.6 - 0.0 - - - - - - -
22/12:00pm 18.5 NNE 10 15 1007.9 - 0.0 - - - - - - -
22/11:30am 18.5 NNE 9 13 1008.1 - 0.0 - - - - - - -
22/11:00am 16.7 NNE 6 9 1008.3 - 0.0 - - - - - - -
22/10:30am 15.2 N 3 5 1008.7 - 0.0 - - - - - - -
22/10:00am 15.3 NW 1 5 1008.5 - 0.0 - - - - - - -
22/09:30am 15.3 WSW 2 5 1008.8 - 0.0 - - - - - - -
22/09:00am 15.6 N 4 10 1008.8 - 2.0 - - - - - - -
22/08:30am 15.0 WNW 3 8 1008.8 - 2.0 - - - - - - -
22/08:00am 14.9 ENE 2 10 1008.7 - 2.0 - - - - - - -
22/07:30am 13.7 NNW 1 4 1008.3 - 2.0 - - - - - - -
22/07:00am 13.0 NE 4 5 1008.4 - 2.0 - - - - - - -
22/06:30am 12.2 NE 5 6 1008.3 - 2.0 - - - - - - -
22/06:00am 10.7 NE 4 5 1008.0 - 2.0 - - - - - - -
22/05:30am 10.8 NNE 6 8 1007.9 - 2.0 - - - - - - -
22/05:00am 11.0 NNE 6 9 1007.9 - 2.0 - - - - - - -
22/04:30am 11.7 N 9 13 1008.0 - 2.0 - - - - - - -
22/04:00am 11.7 N 9 15 1008.0 - 2.0 - - - - - - -
22/03:30am 11.4 N 7 12 1008.3 - 2.0 - - - - - - -
22/03:00am 11.1 NNE 7 11 1008.8 - 2.0 - - - - - - -
22/02:30am 11.4 N 7 12 1009.3 - 2.0 - - - - - - -
22/02:00am 11.4 N 7 12 1009.6 - 2.0 - - - - - - -
22/01:30am 11.2 N 6 10 1009.8 - 2.0 - - - - - - -
22/01:00am 11.2 N 6 10 1010.4 - 2.0 - - - - - - -
22/12:30am 10.7 N 4 8 1010.8 - 2.0 - - - - - - -
22/12:00am 11.3 N 6 9 1011.1 - 2.0 - - - - - - -
 
Date/Time
EDT
Temp

°C
Wind Pressure Rain
since 9am
mm
Weather Cloud Vis
km
Sea
Height
m
Swell
Dir
 
Speed
knots
Gust
knots
hPa Trend Height
m
Period
s
Dir
21/11:30pm 11.2 N 6 8 1011.1 - 2.0 - - - - - - -
21/11:00pm 11.9 N 5 7 1011.4 - 2.0 - - - - - - -
21/10:30pm 11.9 NE 5 7 1011.5 - 2.0 - - - - - - -
21/10:00pm 12.3 NE 5 7 1011.3 - 2.0 - - - - - - -
21/09:30pm 12.3 E 4 7 1011.1 - 2.0 - - - - - - -
21/09:00pm 12.0 ESE 5 7 1010.9 - 2.0 - - - - - - -
21/08:30pm 11.4 ESE 6 8 1010.3 - 2.0 - - - - - - -
21/08:00pm 11.5 SE 7 10 1009.5 - 2.0 - - - - - - -
21/07:30pm 12.3 SE 8 10 1009.3 - 2.0 - - - - - - -
21/07:00pm 12.7 SE 10 13 1008.7 - 2.0 - - - - - - -
21/06:30pm 14.6 SSE 12 16 1008.0 - 2.0 - - - - - - -
21/06:00pm 15.1 SE 12 16 1007.5 - 2.0 - - - - - - -
21/05:30pm 15.8 SE 12 16 1007.1 - 2.0 - - - - - - -
21/05:00pm 14.3 SE 11 15 1006.7 - 2.0 - - - - - - -
21/04:30pm 14.5 SE 12 18 1006.4 - 2.0 - - - - - - -
21/04:00pm 15.0 SE 7 11 1006.2 - 2.0 - - - - - - -
21/03:30pm 13.7 SSE 10 16 1006.1 - 1.6 - - - - - - -
21/03:00pm 14.6 SE 12 17 1005.6 - 1.6 - - - - - - -
21/02:30pm 15.1 S 12 19 1005.4 - 1.6 - - - - - - -
21/02:00pm 14.7 S 11 16 1004.9 - 1.6 - - - - - - -
21/01:30pm 13.6 S 9 15 1004.9 - 1.6 - - - - - - -
21/01:00pm 14.2 S 7 11 1004.6 - 1.4 - - - - - - -
21/12:30pm 14.4 SSE 5 8 1004.2 - 1.2 - - - - - - -
21/12:00pm 13.9 SSE 7 11 1003.9 - 0.8 Rain - - - - - -
21/11:30am 15.3 SSE 12 17 1003.3 - 0.0 - - - - - - -
21/11:00am 18.6 SSE 9 14 1002.9 - 0.0 - - - - - - -
21/10:30am 16.8 SE 10 15 1002.6 - 0.0 - - - - - - -
21/10:00am 16.9 SSE 10 15 1002.2 - 0.0 - - - - - - -
21/09:30am 15.8 SE 9 13 1002.0 - 0.0 - - - - - - -
21/09:00am 19.5 WSW 5 9 1001.5 - 0.0 - - - - - - -
21/08:30am 19.4 W 7 12 1001.0 - 0.0 - - - - - - -
21/08:00am 19.1 NW 6 9 1001.0 - 0.0 - - - - - - -
21/07:30am 18.1 W 3 5 1001.1 - 0.0 - - - - - - -
21/07:00am 16.7 W 4 6 1000.8 - 0.0 - - - - - - -
21/06:30am 16.8 W 5 8 1000.1 - 0.0 - - - - - - -
21/06:00am 16.7 WNW 6 8 999.8 - 0.0 - - - - - - -
21/05:30am 17.1 WNW 7 10 999.7 - 0.0 - - - - - - -
21/05:00am 17.3 WNW 7 10 999.3 - 0.0 - - - - - - -
21/04:30am 17.3 NW 5 9 999.0 - 0.0 - - - - - - -
21/04:00am 17.5 NW 6 11 999.1 - 0.0 - - - - - - -
21/03:30am 17.6 NW 7 11 998.8 - 0.0 - - - - - - -
21/03:00am 17.9 NW 6 13 999.2 - 0.0 - - - - - - -
21/02:30am 18.1 WNW 9 15 999.5 - 0.0 - - - - - - -
21/02:00am 17.9 NW 8 15 999.4 - 0.0 - - - - - - -
21/01:30am 17.8 WNW 8 17 999.7 - 0.0 - - - - - - -
21/01:00am 16.4 SW 3 5 1000.0 - 0.0 - - - - - - -
21/12:30am 16.1 N 4 7 999.7 - 0.0 - - - - - - -
21/12:00am 15.4 CALM 0 0 1000.0 - 0.0 - - - - - - -
 
Date/Time
EDT
Temp

°C
Wind Pressure Rain
since 9am
mm
Weather Cloud Vis
km
Sea
Height
m
Swell
Dir
 
Speed
knots
Gust
knots
hPa Trend Height
m
Period
s
Dir
20/11:30pm 16.2 ENE 2 3 1000.4 - 0.0 - - - - - - -
20/11:00pm 18.1 NNW 5 10 1000.4 - 0.0 - - - - - - -
20/10:30pm 17.6 NW 3 6 1000.7 - 0.0 - - - - - - -
20/10:00pm 17.9 WNW 5 11 1001.2 - 0.0 - - - - - - -
20/09:30pm 16.9 ENE 1 5 1001.5 - 0.0 - - - - - - -
20/09:00pm 17.4 N 4 7 1001.3 - 0.0 - - - - - - -
20/08:30pm 18.3 N 5 8 1000.8 - 0.0 - - - - - - -
20/08:00pm 18.4 W 7 12 1001.3 - 0.0 - - - - - - -
20/07:30pm 18.8 WNW 7 14 1001.4 - 0.0 - - - - - - -
20/07:00pm 19.6 WNW 9 15 1001.8 - 0.0 - - - - - - -
20/06:42pm 20.2 NW 16 27 1001.3 - 0.0 - - - - - - -
20/06:30pm 19.2 WNW 6 21 1001.1 - 0.0 - - - - - - -
20/06:00pm 16.6 S 3 5 1000.6 - 0.0 - - - - - - -
20/05:30pm 17.5 NNE 4 8 1000.4 - 0.0 - - - - - - -
20/05:00pm 18.2 NE 5 10 1000.8 - 0.0 - - - - - - -
20/04:30pm 19.2 NE 4 7 1000.7 - 0.0 - - - - - - -
20/04:00pm 18.7 NNE 3 7 1001.4 - 0.0 - - - - - - -
20/03:30pm 18.3 NNE 8 15 1001.5 - 0.0 - - - - - - -
20/03:00pm 16.8 E 5 8 1002.1 - 0.0 - - - - - - -
20/02:30pm 17.2 E 4 7 1002.7 - 0.0 - - - - - - -
20/02:00pm 16.8 E 5 8 1003.3 - 0.0 - - - - - - -
20/01:30pm 16.7 E 7 10 1003.9 - 0.0 - - - - - - -

Other Formats:

Comma delimited format used in spreadsheet applications
http://www.bom.gov.au/fwo/IDT60701/IDT60701.94987.axf

JavaScript Object Notation format (JSON) in row-major order
http://www.bom.gov.au/fwo/IDT60701/IDT60701.94987.json